RAF Mildenhall


Codes: EGUN/MHZ
Name: RAF Mildenhall
City: Mildenhall
Country: United Kingdom
Elevation: 33 ft.
Website:
Wikipedia:

Photos at RAF Mildenhall


   Photos courtesy of SpottingLog. You can add your own sightings and photos by signing up for a free trial today.



13-5776, 28-Aug-2021
© Graham Rowe

58-0100, 28-Aug-2021
© Graham Rowe

59-1464, 28-Aug-2021
© Graham Rowe

57-1440, 28-Aug-2021
© Graham Rowe

60-0355, 28-Aug-2021
© Graham Rowe

61-0292, 28-Aug-2021
© Graham Rowe

09-0016, 09-Jun-2021
© George Hall

82-8000, 09-Jun-2021
© George Hall

60-0324, 26-May-2020
© Dominic McNeice

62-3540, 26-May-2020
© Dominic McNeice

13-5778, 21-May-2019
© Richard Lewis Fuller

70118, 07-Apr-2018
© Ashley Little


Weather at RAF Mildenhall


Time (UTC)DescriptionTempratureWindCloud coverageVisibilityPressureHumidity
21-Feb-2024 03:00Overcast Clouds10°C11 mph, SW100%10000m1017hPa83%
21-Feb-2024 06:00Light Rain9°C16 mph, S100%10000m1015hPa86%
21-Feb-2024 09:00Light Rain9°C22 mph, S100%10000m1011hPa86%
21-Feb-2024 12:00Light Rain9°C25 mph, S100%10000m1003hPa89%
21-Feb-2024 15:00Light Rain10°C22 mph, SW100%10000m999hPa91%
21-Feb-2024 18:00Overcast Clouds12°C16 mph, W100%10000m998hPa91%
21-Feb-2024 21:00Overcast Clouds9°C13 mph, SW99%10000m999hPa87%
22-Feb-2024 00:00Overcast Clouds8°C13 mph, SW100%10000m999hPa92%
22-Feb-2024 03:00Overcast Clouds9°C13 mph, S100%10000m995hPa93%
22-Feb-2024 06:00Overcast Clouds10°C18 mph, S99%10000m990hPa92%
22-Feb-2024 09:00Light Rain10°C18 mph, S100%10000m985hPa95%
22-Feb-2024 12:00Light Rain11°C25 mph, S100%2950m977hPa90%
22-Feb-2024 15:00Moderate Rain4°C22 mph, NW100%412m977hPa97%
22-Feb-2024 18:00Light Rain5°C18 mph, W100%10000m984hPa78%
22-Feb-2024 21:00Broken Clouds4°C18 mph, SW69%10000m987hPa80%
23-Feb-2024 00:00Scattered Clouds3°C16 mph, SW39%10000m988hPa83%
23-Feb-2024 03:00Broken Clouds3°C16 mph, SW57%10000m987hPa88%
23-Feb-2024 06:00Broken Clouds4°C22 mph, SW76%10000m985hPa84%
23-Feb-2024 09:00Broken Clouds4°C13 mph, SW64%10000m988hPa85%
23-Feb-2024 12:00Scattered Clouds7°C16 mph, SW48%10000m989hPa66%
23-Feb-2024 15:00Light Rain8°C11 mph, SW57%10000m988hPa64%
23-Feb-2024 18:00Light Rain5°C7 mph, S70%10000m988hPa83%
23-Feb-2024 21:00Light Rain4°C7 mph, S100%5538m988hPa94%
24-Feb-2024 00:00Light Rain3°C4 mph, S100%10000m988hPa94%
24-Feb-2024 03:00Overcast Clouds2°C4 mph, SW98%10000m989hPa94%
24-Feb-2024 06:00Overcast Clouds1°C7 mph, SW99%10000m990hPa92%
24-Feb-2024 09:00Broken Clouds3°C7 mph, SW67%10000m992hPa82%
24-Feb-2024 12:00Scattered Clouds7°C7 mph, SW35%10000m993hPa60%
24-Feb-2024 15:00Light Rain8°C4 mph, SW14%10000m994hPa59%
24-Feb-2024 18:00Few Clouds5°C2 mph, NW12%10000m996hPa73%
24-Feb-2024 21:00Clear Sky3°C2 mph, SW6%10000m998hPa80%
25-Feb-2024 00:00Clear Sky2°C4 mph, W6%10000m998hPa87%
25-Feb-2024 03:00Clear Sky1°C7 mph, SW7%10000m999hPa91%
25-Feb-2024 06:00Clear Sky1°C4 mph, SW7%10000m999hPa92%
25-Feb-2024 09:00Few Clouds4°C7 mph, S13%10000m999hPa81%
25-Feb-2024 12:00Broken Clouds7°C9 mph, SE57%10000m998hPa67%
25-Feb-2024 15:00Overcast Clouds8°C11 mph, SE100%10000m996hPa74%
25-Feb-2024 18:00Overcast Clouds6°C11 mph, E100%10000m995hPa85%
25-Feb-2024 21:00Light Rain6°C16 mph, E100%10000m994hPa83%
26-Feb-2024 00:00Light Rain5°C18 mph, E100%7667m992hPa92%